Main page
METAR-TAF:

METAR-TAF

Airports :

Jaipur International Airport

Jaipur, India

latitude: 26-49N, longitude: 075-48E, elevation: 385 m

Current weather observation

The report was made 34 minutes ago, at 20:00 UTC
Temperature
Pressure

METAR: VIJP 252000Z

Time: 02:04 (20:34 UTC)

Forecast

The report was made 3 hours and 34 minutes ago, at 17:00 UTC
Forecast valid from 25 at 18 UTC to 26 at 24 UTC
Wind 3 kt from variable directions
Visibility: 3000 m
Few clouds at a height of 10000 ft
haze
Becoming
from 26 at 03 UTC to 26 at 05 UTC
Wind 8 kt from the East
Visibility: 5000 m
Few clouds at a height of 3500 ft
Scattered clouds at a height of 10000 ft
haze
Becoming
from 26 at 13 UTC to 26 at 15 UTC
Wind 5 kt from the East/Southeast
Visibility: 3000 m
haze

TAF: VIJP 251700Z 2518/2624 VRB03KT 3000 HZ FEW100 BECMG 2603/2605 10008KT 5000 HZ FEW035 SCT100 BECMG 2613/2615 12005KT 3000 HZ

Weather observations and forecasts of more than 4000 airports (METAR and TAF reports).

The available stations are represented by yellow and red dots on the map.

Hover mouse over dot to see the name of the station.

Then click to see weather observations and forecasts.

To change the map : click on the green buttons with a black cross to zoom in, on the green button with a dash to zoom out, or on the green arrows for adjacent maps.


METAR-TAF: